Elk Rapids, Michigan
Current Conditions -  °F | °C
As of 12:18 PM on Friday 28 Nov 2014 (Local Time) from KACB Reporting Station
Overcast Overcast  
Wind Chill: 14°   Ceiling: 3700
Heat Index: 23°   Visibility: 10mi
Dew Point: 15°   Wind: 8mph
Humidity: 73%   Direction: 180°S
Pressure: 30.19"   Gusts: NA
Location:  44.9°N, 85.42°W
Report Text: KACB 281718Z AUTO 18007KT 10SM SCT026 BKN037 OVC100 M05/M09 A3019 RMK AO2 T10501092
Loading
Personal Weather Stations






























Interactive Weather Map New forecast layout! Learn more

10-Day Weather Forecast

Advertisements
Track Severe Weather on mobile